sensor_id;sensor_type;location;lat;lon;timestamp;P1;durP1;ratioP1;P2;durP2;ratioP2
30127;SDS011;16942;53.196;6.592;2023-02-18T00:00:07;9.77;;;2.10;;
30127;SDS011;16942;53.196;6.592;2023-02-18T00:02:33;9.23;;;1.73;;
30127;SDS011;16942;53.196;6.592;2023-02-18T00:04:59;12.03;;;2.70;;
30127;SDS011;16942;53.196;6.592;2023-02-18T00:07:25;11.23;;;2.47;;
30127;SDS011;16942;53.196;6.592;2023-02-18T00:09:51;14.37;;;2.67;;
30127;SDS011;16942;53.196;6.592;2023-02-18T00:12:17;13.43;;;2.10;;
30127;SDS011;16942;53.196;6.592;2023-02-18T00:14:43;15.33;;;2.97;;
30127;SDS011;16942;53.196;6.592;2023-02-18T00:17:09;15.53;;;2.53;;
30127;SDS011;16942;53.196;6.592;2023-02-18T00:19:35;10.00;;;2.53;;
30127;SDS011;16942;53.196;6.592;2023-02-18T00:22:01;15.43;;;2.60;;
30127;SDS011;16942;53.196;6.592;2023-02-18T00:24:27;14.90;;;2.83;;
30127;SDS011;16942;53.196;6.592;2023-02-18T00:26:53;17.77;;;3.53;;
30127;SDS011;16942;53.196;6.592;2023-02-18T00:29:19;11.97;;;2.67;;
30127;SDS011;16942;53.196;6.592;2023-02-18T00:31:45;8.50;;;2.30;;
30127;SDS011;16942;53.196;6.592;2023-02-18T00:34:12;16.50;;;2.60;;
30127;SDS011;16942;53.196;6.592;2023-02-18T00:36:38;17.87;;;3.43;;
30127;SDS011;16942;53.196;6.592;2023-02-18T00:39:08;12.87;;;2.50;;
30127;SDS011;16942;53.196;6.592;2023-02-18T00:41:34;18.00;;;2.20;;
30127;SDS011;16942;53.196;6.592;2023-02-18T00:44:01;11.50;;;2.67;;
30127;SDS011;16942;53.196;6.592;2023-02-18T00:46:27;12.30;;;2.27;;
30127;SDS011;16942;53.196;6.592;2023-02-18T00:48:54;19.23;;;2.70;;
30127;SDS011;16942;53.196;6.592;2023-02-18T00:51:20;14.03;;;2.13;;
30127;SDS011;16942;53.196;6.592;2023-02-18T00:53:46;20.93;;;2.90;;
30127;SDS011;16942;53.196;6.592;2023-02-18T00:56:12;19.00;;;2.43;;
30127;SDS011;16942;53.196;6.592;2023-02-18T00:58:39;13.27;;;2.73;;
30127;SDS011;16942;53.196;6.592;2023-02-18T01:01:06;11.67;;;2.40;;
30127;SDS011;16942;53.196;6.592;2023-02-18T01:03:32;11.37;;;2.43;;
30127;SDS011;16942;53.196;6.592;2023-02-18T01:05:59;10.03;;;2.17;;
30127;SDS011;16942;53.196;6.592;2023-02-18T01:08:25;15.70;;;2.60;;
30127;SDS011;16942;53.196;6.592;2023-02-18T01:10:52;7.23;;;1.97;;
30127;SDS011;16942;53.196;6.592;2023-02-18T01:13:18;11.07;;;2.60;;
30127;SDS011;16942;53.196;6.592;2023-02-18T01:15:44;10.50;;;2.17;;
30127;SDS011;16942;53.196;6.592;2023-02-18T01:18:12;16.20;;;2.40;;
30127;SDS011;16942;53.196;6.592;2023-02-18T01:20:39;11.50;;;2.17;;
30127;SDS011;16942;53.196;6.592;2023-02-18T01:23:06;13.00;;;2.87;;
30127;SDS011;16942;53.196;6.592;2023-02-18T01:25:32;14.23;;;2.63;;
30127;SDS011;16942;53.196;6.592;2023-02-18T01:27:58;14.30;;;2.40;;
30127;SDS011;16942;53.196;6.592;2023-02-18T01:30:24;17.40;;;2.77;;
30127;SDS011;16942;53.196;6.592;2023-02-18T01:32:50;12.67;;;2.43;;
30127;SDS011;16942;53.196;6.592;2023-02-18T01:35:17;14.07;;;2.23;;
30127;SDS011;16942;53.196;6.592;2023-02-18T01:37:44;17.17;;;3.10;;
30127;SDS011;16942;53.196;6.592;2023-02-18T01:40:11;13.57;;;3.00;;
30127;SDS011;16942;53.196;6.592;2023-02-18T01:42:37;12.60;;;2.73;;
30127;SDS011;16942;53.196;6.592;2023-02-18T01:47:48;12.50;;;2.50;;
30127;SDS011;16942;53.196;6.592;2023-02-18T01:50:14;18.40;;;3.00;;
30127;SDS011;16942;53.196;6.592;2023-02-18T01:52:40;17.50;;;3.07;;
30127;SDS011;16942;53.196;6.592;2023-02-18T01:55:06;13.43;;;2.47;;
30127;SDS011;16942;53.196;6.592;2023-02-18T01:57:33;17.17;;;3.80;;
30127;SDS011;16942;53.196;6.592;2023-02-18T02:00:03;17.50;;;3.10;;
30127;SDS011;16942;53.196;6.592;2023-02-18T02:02:30;11.43;;;2.67;;
30127;SDS011;16942;53.196;6.592;2023-02-18T02:04:57;10.83;;;2.63;;
30127;SDS011;16942;53.196;6.592;2023-02-18T02:07:23;14.53;;;2.70;;
30127;SDS011;16942;53.196;6.592;2023-02-18T02:09:51;14.10;;;3.83;;
30127;SDS011;16942;53.196;6.592;2023-02-18T02:12:28;14.10;;;2.53;;
30127;SDS011;16942;53.196;6.592;2023-02-18T02:25:07;14.07;;;2.80;;
30127;SDS011;16942;53.196;6.592;2023-02-18T02:30:13;14.73;;;3.13;;
30127;SDS011;16942;53.196;6.592;2023-02-18T02:35:48;11.63;;;3.17;;
30127;SDS011;16942;53.196;6.592;2023-02-18T02:38:18;14.50;;;2.70;;
30127;SDS011;16942;53.196;6.592;2023-02-18T02:40:51;16.93;;;3.57;;
30127;SDS011;16942;53.196;6.592;2023-02-18T02:43:23;12.33;;;4.73;;
30127;SDS011;16942;53.196;6.592;2023-02-18T02:45:55;15.37;;;3.00;;
30127;SDS011;16942;53.196;6.592;2023-02-18T02:51:04;13.63;;;3.40;;
30127;SDS011;16942;53.196;6.592;2023-02-18T02:53:32;18.60;;;3.00;;
30127;SDS011;16942;53.196;6.592;2023-02-18T02:55:59;18.00;;;4.30;;
30127;SDS011;16942;53.196;6.592;2023-02-18T02:58:25;14.10;;;4.30;;
30127;SDS011;16942;53.196;6.592;2023-02-18T03:03:42;19.87;;;3.23;;
30127;SDS011;16942;53.196;6.592;2023-02-18T03:08:50;14.47;;;3.40;;
30127;SDS011;16942;53.196;6.592;2023-02-18T03:11:18;8.37;;;3.27;;
30127;SDS011;16942;53.196;6.592;2023-02-18T03:21:41;19.87;;;3.67;;
30127;SDS011;16942;53.196;6.592;2023-02-18T03:24:28;14.00;;;3.47;;
30127;SDS011;16942;53.196;6.592;2023-02-18T03:26:57;12.70;;;3.40;;
30127;SDS011;16942;53.196;6.592;2023-02-18T03:29:24;20.17;;;3.67;;
30127;SDS011;16942;53.196;6.592;2023-02-18T03:31:54;15.30;;;3.93;;
30127;SDS011;16942;53.196;6.592;2023-02-18T03:34:22;10.20;;;3.07;;
30127;SDS011;16942;53.196;6.592;2023-02-18T03:36:50;11.67;;;4.07;;
30127;SDS011;16942;53.196;6.592;2023-02-18T03:39:17;16.97;;;4.43;;
30127;SDS011;16942;53.196;6.592;2023-02-18T03:41:44;16.37;;;3.93;;
30127;SDS011;16942;53.196;6.592;2023-02-18T03:44:11;22.23;;;4.67;;
30127;SDS011;16942;53.196;6.592;2023-02-18T03:46:38;13.50;;;3.73;;
30127;SDS011;16942;53.196;6.592;2023-02-18T03:49:04;13.67;;;4.37;;
30127;SDS011;16942;53.196;6.592;2023-02-18T03:51:30;16.57;;;4.67;;
30127;SDS011;16942;53.196;6.592;2023-02-18T03:53:57;16.43;;;4.77;;
30127;SDS011;16942;53.196;6.592;2023-02-18T03:56:23;15.63;;;4.60;;
30127;SDS011;16942;53.196;6.592;2023-02-18T03:58:49;17.73;;;4.80;;
30127;SDS011;16942;53.196;6.592;2023-02-18T04:01:15;27.83;;;6.70;;
30127;SDS011;16942;53.196;6.592;2023-02-18T04:03:41;16.80;;;4.33;;
30127;SDS011;16942;53.196;6.592;2023-02-18T04:06:07;14.40;;;4.17;;
30127;SDS011;16942;53.196;6.592;2023-02-18T04:08:33;13.57;;;4.50;;
30127;SDS011;16942;53.196;6.592;2023-02-18T04:10:59;15.80;;;4.97;;
30127;SDS011;16942;53.196;6.592;2023-02-18T04:13:25;12.73;;;4.50;;
30127;SDS011;16942;53.196;6.592;2023-02-18T04:15:51;16.87;;;4.53;;
30127;SDS011;16942;53.196;6.592;2023-02-18T04:18:17;12.17;;;4.40;;
30127;SDS011;16942;53.196;6.592;2023-02-18T04:20:44;19.20;;;5.20;;
30127;SDS011;16942;53.196;6.592;2023-02-18T04:23:13;17.33;;;5.10;;
30127;SDS011;16942;53.196;6.592;2023-02-18T04:25:39;16.93;;;4.47;;
30127;SDS011;16942;53.196;6.592;2023-02-18T04:28:05;17.73;;;5.20;;
30127;SDS011;16942;53.196;6.592;2023-02-18T04:30:31;10.97;;;5.37;;
30127;SDS011;16942;53.196;6.592;2023-02-18T04:32:57;13.23;;;5.17;;
30127;SDS011;16942;53.196;6.592;2023-02-18T04:35:23;13.23;;;5.57;;
30127;SDS011;16942;53.196;6.592;2023-02-18T04:37:49;12.53;;;5.63;;
30127;SDS011;16942;53.196;6.592;2023-02-18T04:40:15;21.97;;;6.93;;
30127;SDS011;16942;53.196;6.592;2023-02-18T04:42:41;17.43;;;6.83;;
30127;SDS011;16942;53.196;6.592;2023-02-18T04:45:07;17.53;;;6.67;;
30127;SDS011;16942;53.196;6.592;2023-02-18T04:47:33;16.13;;;6.43;;
30127;SDS011;16942;53.196;6.592;2023-02-18T04:49:59;21.37;;;6.53;;
30127;SDS011;16942;53.196;6.592;2023-02-18T04:52:25;19.83;;;7.87;;
30127;SDS011;16942;53.196;6.592;2023-02-18T04:54:51;22.97;;;7.63;;
30127;SDS011;16942;53.196;6.592;2023-02-18T04:57:17;21.97;;;8.70;;
30127;SDS011;16942;53.196;6.592;2023-02-18T04:59:43;20.27;;;8.07;;
30127;SDS011;16942;53.196;6.592;2023-02-18T05:02:09;21.10;;;9.23;;
30127;SDS011;16942;53.196;6.592;2023-02-18T05:04:35;26.37;;;9.87;;
30127;SDS011;16942;53.196;6.592;2023-02-18T05:07:01;19.97;;;9.90;;
30127;SDS011;16942;53.196;6.592;2023-02-18T05:09:27;19.30;;;10.13;;
30127;SDS011;16942;53.196;6.592;2023-02-18T05:11:53;23.00;;;10.90;;
30127;SDS011;16942;53.196;6.592;2023-02-18T05:14:19;25.67;;;13.13;;
30127;SDS011;16942;53.196;6.592;2023-02-18T05:16:45;25.07;;;12.13;;
30127;SDS011;16942;53.196;6.592;2023-02-18T05:19:12;32.57;;;12.67;;
30127;SDS011;16942;53.196;6.592;2023-02-18T05:21:38;30.87;;;12.87;;
30127;SDS011;16942;53.196;6.592;2023-02-18T05:24:04;39.27;;;16.17;;
30127;SDS011;16942;53.196;6.592;2023-02-18T05:26:31;37.17;;;16.20;;
30127;SDS011;16942;53.196;6.592;2023-02-18T05:28:57;41.87;;;17.13;;
30127;SDS011;16942;53.196;6.592;2023-02-18T05:31:23;35.53;;;17.07;;
30127;SDS011;16942;53.196;6.592;2023-02-18T05:33:49;33.50;;;17.03;;
30127;SDS011;16942;53.196;6.592;2023-02-18T05:36:15;40.33;;;18.67;;
30127;SDS011;16942;53.196;6.592;2023-02-18T05:38:41;43.17;;;19.43;;
30127;SDS011;16942;53.196;6.592;2023-02-18T05:41:07;40.03;;;17.97;;
30127;SDS011;16942;53.196;6.592;2023-02-18T05:43:33;44.63;;;20.13;;
30127;SDS011;16942;53.196;6.592;2023-02-18T05:46:17;39.30;;;18.33;;
30127;SDS011;16942;53.196;6.592;2023-02-18T05:48:43;38.03;;;18.20;;
30127;SDS011;16942;53.196;6.592;2023-02-18T05:51:09;42.87;;;19.33;;
30127;SDS011;16942;53.196;6.592;2023-02-18T05:53:36;40.03;;;17.97;;
30127;SDS011;16942;53.196;6.592;2023-02-18T05:56:02;42.10;;;17.43;;
30127;SDS011;16942;53.196;6.592;2023-02-18T05:58:28;34.20;;;15.87;;
30127;SDS011;16942;53.196;6.592;2023-02-18T06:00:54;30.87;;;15.50;;
30127;SDS011;16942;53.196;6.592;2023-02-18T06:03:20;35.93;;;15.60;;
30127;SDS011;16942;53.196;6.592;2023-02-18T06:05:49;32.30;;;16.03;;
30127;SDS011;16942;53.196;6.592;2023-02-18T06:08:16;31.77;;;15.83;;
30127;SDS011;16942;53.196;6.592;2023-02-18T06:10:44;29.50;;;14.00;;
30127;SDS011;16942;53.196;6.592;2023-02-18T06:13:10;31.87;;;14.17;;
30127;SDS011;16942;53.196;6.592;2023-02-18T06:15:36;36.13;;;14.77;;
30127;SDS011;16942;53.196;6.592;2023-02-18T06:18:02;32.20;;;14.50;;
30127;SDS011;16942;53.196;6.592;2023-02-18T06:20:28;30.37;;;13.70;;
30127;SDS011;16942;53.196;6.592;2023-02-18T06:22:54;25.80;;;13.67;;
30127;SDS011;16942;53.196;6.592;2023-02-18T06:25:20;26.93;;;13.17;;
30127;SDS011;16942;53.196;6.592;2023-02-18T06:27:46;25.60;;;12.23;;
30127;SDS011;16942;53.196;6.592;2023-02-18T06:30:12;32.63;;;12.70;;
30127;SDS011;16942;53.196;6.592;2023-02-18T06:32:39;24.87;;;11.60;;
30127;SDS011;16942;53.196;6.592;2023-02-18T06:35:05;26.20;;;10.93;;
30127;SDS011;16942;53.196;6.592;2023-02-18T06:37:31;25.43;;;12.03;;
30127;SDS011;16942;53.196;6.592;2023-02-18T06:39:57;24.17;;;10.33;;
30127;SDS011;16942;53.196;6.592;2023-02-18T06:42:23;23.43;;;10.27;;
30127;SDS011;16942;53.196;6.592;2023-02-18T06:44:49;24.03;;;9.47;;
30127;SDS011;16942;53.196;6.592;2023-02-18T06:47:15;18.33;;;8.40;;
30127;SDS011;16942;53.196;6.592;2023-02-18T06:49:41;16.77;;;8.60;;
30127;SDS011;16942;53.196;6.592;2023-02-18T06:52:07;17.83;;;8.23;;
30127;SDS011;16942;53.196;6.592;2023-02-18T06:54:33;17.40;;;8.03;;
30127;SDS011;16942;53.196;6.592;2023-02-18T06:57:00;14.03;;;7.63;;
30127;SDS011;16942;53.196;6.592;2023-02-18T06:59:26;17.67;;;8.60;;
30127;SDS011;16942;53.196;6.592;2023-02-18T07:01:52;16.47;;;7.80;;
30127;SDS011;16942;53.196;6.592;2023-02-18T07:04:18;17.00;;;8.17;;
30127;SDS011;16942;53.196;6.592;2023-02-18T07:06:44;15.93;;;8.50;;
30127;SDS011;16942;53.196;6.592;2023-02-18T07:09:10;13.40;;;8.17;;
30127;SDS011;16942;53.196;6.592;2023-02-18T07:11:36;18.83;;;8.77;;
30127;SDS011;16942;53.196;6.592;2023-02-18T07:14:02;22.13;;;10.37;;
30127;SDS011;16942;53.196;6.592;2023-02-18T07:16:28;16.77;;;9.47;;
30127;SDS011;16942;53.196;6.592;2023-02-18T07:18:54;23.87;;;11.63;;
30127;SDS011;16942;53.196;6.592;2023-02-18T07:21:20;25.70;;;12.77;;
30127;SDS011;16942;53.196;6.592;2023-02-18T07:23:46;27.60;;;13.47;;
30127;SDS011;16942;53.196;6.592;2023-02-18T07:26:12;28.73;;;13.83;;
30127;SDS011;16942;53.196;6.592;2023-02-18T07:28:39;32.10;;;14.90;;
30127;SDS011;16942;53.196;6.592;2023-02-18T07:31:05;30.77;;;13.13;;
30127;SDS011;16942;53.196;6.592;2023-02-18T07:33:32;30.50;;;12.70;;
30127;SDS011;16942;53.196;6.592;2023-02-18T07:35:58;28.47;;;12.30;;
30127;SDS011;16942;53.196;6.592;2023-02-18T07:38:25;23.30;;;12.03;;
30127;SDS011;16942;53.196;6.592;2023-02-18T07:40:52;30.43;;;13.30;;
30127;SDS011;16942;53.196;6.592;2023-02-18T07:43:18;29.90;;;13.40;;
30127;SDS011;16942;53.196;6.592;2023-02-18T07:45:44;28.13;;;12.27;;
30127;SDS011;16942;53.196;6.592;2023-02-18T07:48:11;28.40;;;11.40;;
30127;SDS011;16942;53.196;6.592;2023-02-18T07:50:40;35.37;;;13.13;;
30127;SDS011;16942;53.196;6.592;2023-02-18T07:53:06;24.47;;;10.80;;
30127;SDS011;16942;53.196;6.592;2023-02-18T07:55:33;23.23;;;10.73;;
30127;SDS011;16942;53.196;6.592;2023-02-18T08:00:43;24.23;;;10.67;;
30127;SDS011;16942;53.196;6.592;2023-02-18T08:03:09;22.07;;;10.50;;
30127;SDS011;16942;53.196;6.592;2023-02-18T08:05:35;22.30;;;10.40;;
30127;SDS011;16942;53.196;6.592;2023-02-18T08:08:01;21.60;;;10.93;;
30127;SDS011;16942;53.196;6.592;2023-02-18T08:10:27;20.43;;;10.73;;
30127;SDS011;16942;53.196;6.592;2023-02-18T08:12:53;31.83;;;10.60;;
30127;SDS011;16942;53.196;6.592;2023-02-18T08:15:19;22.23;;;9.43;;
30127;SDS011;16942;53.196;6.592;2023-02-18T08:17:45;17.87;;;8.73;;
30127;SDS011;16942;53.196;6.592;2023-02-18T08:20:11;20.93;;;8.83;;
30127;SDS011;16942;53.196;6.592;2023-02-18T08:22:37;22.73;;;8.23;;
30127;SDS011;16942;53.196;6.592;2023-02-18T08:25:03;20.67;;;8.27;;
30127;SDS011;16942;53.196;6.592;2023-02-18T08:27:30;19.90;;;7.80;;
30127;SDS011;16942;53.196;6.592;2023-02-18T08:29:56;14.27;;;6.37;;
30127;SDS011;16942;53.196;6.592;2023-02-18T08:32:22;17.30;;;6.63;;
30127;SDS011;16942;53.196;6.592;2023-02-18T08:34:51;17.00;;;6.40;;
30127;SDS011;16942;53.196;6.592;2023-02-18T08:37:17;16.27;;;5.77;;
30127;SDS011;16942;53.196;6.592;2023-02-18T08:39:43;18.33;;;5.87;;
30127;SDS011;16942;53.196;6.592;2023-02-18T08:42:09;21.80;;;5.00;;
30127;SDS011;16942;53.196;6.592;2023-02-18T08:44:35;12.60;;;4.40;;
30127;SDS011;16942;53.196;6.592;2023-02-18T08:47:01;15.97;;;4.67;;
30127;SDS011;16942;53.196;6.592;2023-02-18T08:49:27;11.23;;;4.80;;
30127;SDS011;16942;53.196;6.592;2023-02-18T08:51:53;18.40;;;6.00;;
30127;SDS011;16942;53.196;6.592;2023-02-18T08:54:19;14.33;;;3.83;;
30127;SDS011;16942;53.196;6.592;2023-02-18T08:56:45;17.77;;;4.27;;
30127;SDS011;16942;53.196;6.592;2023-02-18T08:59:11;11.20;;;4.30;;
30127;SDS011;16942;53.196;6.592;2023-02-18T09:01:37;15.60;;;4.50;;
30127;SDS011;16942;53.196;6.592;2023-02-18T09:04:03;15.13;;;4.50;;
30127;SDS011;16942;53.196;6.592;2023-02-18T09:06:29;18.53;;;4.57;;
30127;SDS011;16942;53.196;6.592;2023-02-18T09:08:55;9.30;;;4.47;;
30127;SDS011;16942;53.196;6.592;2023-02-18T09:11:21;14.30;;;5.10;;
30127;SDS011;16942;53.196;6.592;2023-02-18T09:13:47;13.17;;;4.60;;
30127;SDS011;16942;53.196;6.592;2023-02-18T09:16:14;13.13;;;4.00;;
30127;SDS011;16942;53.196;6.592;2023-02-18T09:18:42;12.37;;;4.20;;
30127;SDS011;16942;53.196;6.592;2023-02-18T09:21:09;5.60;;;3.67;;
30127;SDS011;16942;53.196;6.592;2023-02-18T09:23:36;16.63;;;4.03;;
30127;SDS011;16942;53.196;6.592;2023-02-18T09:26:05;12.13;;;4.03;;
30127;SDS011;16942;53.196;6.592;2023-02-18T09:28:32;17.50;;;4.30;;
30127;SDS011;16942;53.196;6.592;2023-02-18T09:31:02;14.50;;;3.97;;
30127;SDS011;16942;53.196;6.592;2023-02-18T09:33:28;11.90;;;4.20;;
30127;SDS011;16942;53.196;6.592;2023-02-18T09:35:54;10.50;;;3.53;;
30127;SDS011;16942;53.196;6.592;2023-02-18T09:38:20;9.50;;;3.43;;
30127;SDS011;16942;53.196;6.592;2023-02-18T09:40:47;10.60;;;4.07;;
30127;SDS011;16942;53.196;6.592;2023-02-18T09:45:56;14.57;;;4.17;;
30127;SDS011;16942;53.196;6.592;2023-02-18T09:48:26;17.13;;;4.67;;
30127;SDS011;16942;53.196;6.592;2023-02-18T09:50:53;12.33;;;3.93;;
30127;SDS011;16942;53.196;6.592;2023-02-18T09:53:20;17.27;;;3.63;;
30127;SDS011;16942;53.196;6.592;2023-02-18T09:55:47;16.10;;;3.63;;
30127;SDS011;16942;53.196;6.592;2023-02-18T09:58:14;13.47;;;3.37;;
30127;SDS011;16942;53.196;6.592;2023-02-18T10:00:46;13.30;;;3.47;;
30127;SDS011;16942;53.196;6.592;2023-02-18T10:03:18;16.27;;;3.13;;
30127;SDS011;16942;53.196;6.592;2023-02-18T10:05:48;12.40;;;3.10;;
30127;SDS011;16942;53.196;6.592;2023-02-18T10:08:18;16.73;;;4.43;;
30127;SDS011;16942;53.196;6.592;2023-02-18T10:10:46;22.40;;;3.73;;
30127;SDS011;16942;53.196;6.592;2023-02-18T10:13:13;16.77;;;3.43;;
30127;SDS011;16942;53.196;6.592;2023-02-18T10:15:40;17.07;;;3.37;;
30127;SDS011;16942;53.196;6.592;2023-02-18T10:18:12;13.50;;;2.80;;
30127;SDS011;16942;53.196;6.592;2023-02-18T10:20:39;14.23;;;3.23;;
30127;SDS011;16942;53.196;6.592;2023-02-18T10:23:05;14.23;;;2.70;;
30127;SDS011;16942;53.196;6.592;2023-02-18T10:25:31;16.00;;;3.00;;
30127;SDS011;16942;53.196;6.592;2023-02-18T10:27:58;16.47;;;2.63;;
30127;SDS011;16942;53.196;6.592;2023-02-18T10:32:54;14.97;;;2.83;;
30127;SDS011;16942;53.196;6.592;2023-02-18T10:35:26;9.63;;;2.23;;
30127;SDS011;16942;53.196;6.592;2023-02-18T10:40:34;11.53;;;2.30;;
30127;SDS011;16942;53.196;6.592;2023-02-18T10:50:48;22.83;;;3.73;;
30127;SDS011;16942;53.196;6.592;2023-02-18T10:55:45;15.43;;;2.63;;
30127;SDS011;16942;53.196;6.592;2023-02-18T11:00:48;12.57;;;3.50;;
30127;SDS011;16942;53.196;6.592;2023-02-18T11:03:15;16.43;;;3.00;;
30127;SDS011;16942;53.196;6.592;2023-02-18T11:05:42;14.47;;;2.73;;
30127;SDS011;16942;53.196;6.592;2023-02-18T11:08:10;10.63;;;2.83;;
30127;SDS011;16942;53.196;6.592;2023-02-18T11:10:39;13.93;;;2.40;;
30127;SDS011;16942;53.196;6.592;2023-02-18T11:13:07;15.93;;;2.77;;
30127;SDS011;16942;53.196;6.592;2023-02-18T11:15:34;11.53;;;3.53;;
30127;SDS011;16942;53.196;6.592;2023-02-18T11:18:23;16.50;;;3.23;;
30127;SDS011;16942;53.196;6.592;2023-02-18T11:20:56;13.87;;;2.63;;
30127;SDS011;16942;53.196;6.592;2023-02-18T11:23:22;10.10;;;2.73;;
30127;SDS011;16942;53.196;6.592;2023-02-18T11:30:45;13.93;;;2.20;;
30127;SDS011;16942;53.196;6.592;2023-02-18T11:33:29;11.77;;;2.00;;
30127;SDS011;16942;53.196;6.592;2023-02-18T11:35:57;10.37;;;2.87;;
30127;SDS011;16942;53.196;6.592;2023-02-18T11:38:40;16.90;;;2.33;;
30127;SDS011;16942;53.196;6.592;2023-02-18T11:41:07;13.03;;;2.90;;
30127;SDS011;16942;53.196;6.592;2023-02-18T11:43:34;15.77;;;2.60;;
30127;SDS011;16942;53.196;6.592;2023-02-18T11:46:08;15.57;;;2.57;;
30127;SDS011;16942;53.196;6.592;2023-02-18T11:48:34;10.30;;;3.40;;
30127;SDS011;16942;53.196;6.592;2023-02-18T11:51:01;8.90;;;2.30;;
30127;SDS011;16942;53.196;6.592;2023-02-18T11:53:28;9.00;;;2.47;;
30127;SDS011;16942;53.196;6.592;2023-02-18T11:55:55;12.00;;;2.20;;
30127;SDS011;16942;53.196;6.592;2023-02-18T11:58:21;11.37;;;2.30;;
30127;SDS011;16942;53.196;6.592;2023-02-18T12:00:48;11.87;;;2.60;;
30127;SDS011;16942;53.196;6.592;2023-02-18T12:03:20;7.43;;;2.60;;
30127;SDS011;16942;53.196;6.592;2023-02-18T12:05:48;17.63;;;2.93;;
30127;SDS011;16942;53.196;6.592;2023-02-18T12:08:18;11.07;;;2.80;;
30127;SDS011;16942;53.196;6.592;2023-02-18T12:10:49;17.13;;;4.07;;
30127;SDS011;16942;53.196;6.592;2023-02-18T12:15:49;12.97;;;2.27;;
30127;SDS011;16942;53.196;6.592;2023-02-18T12:18:25;13.53;;;2.30;;
30127;SDS011;16942;53.196;6.592;2023-02-18T12:28:32;6.50;;;2.13;;
30127;SDS011;16942;53.196;6.592;2023-02-18T12:31:04;9.20;;;2.60;;
30127;SDS011;16942;53.196;6.592;2023-02-18T12:51:56;18.83;;;3.00;;
30127;SDS011;16942;53.196;6.592;2023-02-18T12:57:14;11.80;;;3.00;;
30127;SDS011;16942;53.196;6.592;2023-02-18T13:00:21;13.17;;;2.50;;
30127;SDS011;16942;53.196;6.592;2023-02-18T13:07:55;10.40;;;2.70;;
30127;SDS011;16942;53.196;6.592;2023-02-18T13:16:00;14.40;;;2.33;;
30127;SDS011;16942;53.196;6.592;2023-02-18T13:18:29;17.17;;;2.57;;
30127;SDS011;16942;53.196;6.592;2023-02-18T13:20:59;17.37;;;2.37;;
30127;SDS011;16942;53.196;6.592;2023-02-18T13:23:30;15.07;;;2.40;;
30127;SDS011;16942;53.196;6.592;2023-02-18T13:25:58;12.73;;;2.07;;
30127;SDS011;16942;53.196;6.592;2023-02-18T13:28:28;12.47;;;2.30;;
30127;SDS011;16942;53.196;6.592;2023-02-18T13:33:46;9.63;;;1.97;;
30127;SDS011;16942;53.196;6.592;2023-02-18T13:39:02;15.20;;;2.17;;
30127;SDS011;16942;53.196;6.592;2023-02-18T13:41:29;10.67;;;2.13;;
30127;SDS011;16942;53.196;6.592;2023-02-18T13:43:59;9.40;;;1.63;;
30127;SDS011;16942;53.196;6.592;2023-02-18T13:46:25;10.63;;;2.40;;
30127;SDS011;16942;53.196;6.592;2023-02-18T13:53:55;16.07;;;2.17;;
30127;SDS011;16942;53.196;6.592;2023-02-18T13:56:28;17.60;;;2.33;;
30127;SDS011;16942;53.196;6.592;2023-02-18T13:58:58;11.73;;;1.93;;
30127;SDS011;16942;53.196;6.592;2023-02-18T14:04:00;12.73;;;2.20;;
30127;SDS011;16942;53.196;6.592;2023-02-18T14:06:31;9.23;;;2.43;;
30127;SDS011;16942;53.196;6.592;2023-02-18T14:09:41;12.00;;;2.07;;
30127;SDS011;16942;53.196;6.592;2023-02-18T14:11:47;8.50;;;2.60;;
30127;SDS011;16942;53.196;6.592;2023-02-18T14:14:27;9.43;;;2.37;;
30127;SDS011;16942;53.196;6.592;2023-02-18T14:17:41;14.40;;;2.97;;
30127;SDS011;16942;53.196;6.592;2023-02-18T14:19:42;12.93;;;2.30;;
30127;SDS011;16942;53.196;6.592;2023-02-18T14:27:33;11.20;;;2.17;;
30127;SDS011;16942;53.196;6.592;2023-02-18T14:30:04;10.03;;;2.33;;
30127;SDS011;16942;53.196;6.592;2023-02-18T14:32:31;17.10;;;2.30;;
30127;SDS011;16942;53.196;6.592;2023-02-18T14:42:48;11.47;;;2.30;;
30127;SDS011;16942;53.196;6.592;2023-02-18T14:50:11;12.73;;;2.40;;
30127;SDS011;16942;53.196;6.592;2023-02-18T14:55:04;16.37;;;2.63;;
30127;SDS011;16942;53.196;6.592;2023-02-18T14:57:33;14.03;;;2.57;;
30127;SDS011;16942;53.196;6.592;2023-02-18T15:00:01;16.77;;;3.07;;
30127;SDS011;16942;53.196;6.592;2023-02-18T15:02:28;14.80;;;2.33;;
30127;SDS011;16942;53.196;6.592;2023-02-18T15:05:06;14.90;;;2.30;;
30127;SDS011;16942;53.196;6.592;2023-02-18T15:07:36;13.87;;;2.73;;
30127;SDS011;16942;53.196;6.592;2023-02-18T15:10:02;21.37;;;2.50;;
30127;SDS011;16942;53.196;6.592;2023-02-18T15:12:28;12.73;;;2.50;;
30127;SDS011;16942;53.196;6.592;2023-02-18T15:14:54;19.73;;;3.83;;
30127;SDS011;16942;53.196;6.592;2023-02-18T15:17:24;17.50;;;3.07;;
30127;SDS011;16942;53.196;6.592;2023-02-18T15:19:58;18.73;;;2.63;;
30127;SDS011;16942;53.196;6.592;2023-02-18T15:22:25;16.70;;;2.30;;
30127;SDS011;16942;53.196;6.592;2023-02-18T15:24:52;15.83;;;2.67;;
30127;SDS011;16942;53.196;6.592;2023-02-18T15:27:20;21.17;;;2.90;;
30127;SDS011;16942;53.196;6.592;2023-02-18T15:29:50;23.10;;;2.87;;
30127;SDS011;16942;53.196;6.592;2023-02-18T15:32:18;17.63;;;2.70;;
30127;SDS011;16942;53.196;6.592;2023-02-18T15:34:44;18.33;;;2.90;;
30127;SDS011;16942;53.196;6.592;2023-02-18T15:37:13;16.33;;;2.67;;
30127;SDS011;16942;53.196;6.592;2023-02-18T15:39:40;18.77;;;2.70;;
30127;SDS011;16942;53.196;6.592;2023-02-18T15:42:08;24.17;;;3.17;;
30127;SDS011;16942;53.196;6.592;2023-02-18T15:44:35;21.30;;;3.30;;
30127;SDS011;16942;53.196;6.592;2023-02-18T15:47:03;14.77;;;2.30;;
30127;SDS011;16942;53.196;6.592;2023-02-18T15:49:31;27.13;;;3.70;;
30127;SDS011;16942;53.196;6.592;2023-02-18T15:51:57;14.30;;;2.57;;
30127;SDS011;16942;53.196;6.592;2023-02-18T15:54:25;13.57;;;2.40;;
30127;SDS011;16942;53.196;6.592;2023-02-18T15:56:52;16.60;;;3.40;;
30127;SDS011;16942;53.196;6.592;2023-02-18T15:59:28;11.80;;;2.20;;
30127;SDS011;16942;53.196;6.592;2023-02-18T16:01:56;23.73;;;3.13;;
30127;SDS011;16942;53.196;6.592;2023-02-18T16:04:23;20.07;;;2.43;;
30127;SDS011;16942;53.196;6.592;2023-02-18T16:06:53;20.13;;;3.27;;
30127;SDS011;16942;53.196;6.592;2023-02-18T16:09:29;22.17;;;2.83;;
30127;SDS011;16942;53.196;6.592;2023-02-18T16:11:56;20.83;;;3.03;;
30127;SDS011;16942;53.196;6.592;2023-02-18T16:17:05;15.33;;;3.43;;
30127;SDS011;16942;53.196;6.592;2023-02-18T16:19:31;19.27;;;3.57;;
30127;SDS011;16942;53.196;6.592;2023-02-18T16:21:58;18.40;;;4.13;;
30127;SDS011;16942;53.196;6.592;2023-02-18T16:24:28;15.33;;;2.57;;
30127;SDS011;16942;53.196;6.592;2023-02-18T16:26:57;21.00;;;3.37;;
30127;SDS011;16942;53.196;6.592;2023-02-18T16:29:25;18.97;;;3.50;;
30127;SDS011;16942;53.196;6.592;2023-02-18T16:31:51;18.60;;;2.83;;
30127;SDS011;16942;53.196;6.592;2023-02-18T16:34:17;18.97;;;3.20;;
30127;SDS011;16942;53.196;6.592;2023-02-18T16:36:43;19.73;;;3.20;;
30127;SDS011;16942;53.196;6.592;2023-02-18T16:39:30;15.13;;;2.93;;
30127;SDS011;16942;53.196;6.592;2023-02-18T16:41:57;18.67;;;3.07;;
30127;SDS011;16942;53.196;6.592;2023-02-18T16:44:24;15.73;;;3.13;;
30127;SDS011;16942;53.196;6.592;2023-02-18T16:46:50;16.07;;;3.23;;
30127;SDS011;16942;53.196;6.592;2023-02-18T16:49:16;24.67;;;3.60;;
30127;SDS011;16942;53.196;6.592;2023-02-18T16:51:42;21.63;;;3.80;;
30127;SDS011;16942;53.196;6.592;2023-02-18T16:54:11;24.20;;;3.50;;
30127;SDS011;16942;53.196;6.592;2023-02-18T16:56:38;24.13;;;3.77;;